Time;durP1;ratioP1;P1;durP2;ratioP2;P2;SDS_P1;SDS_P2;PMS_P1;PMS_P2;Temp;Humidity;BMP_temperature;BMP_pressure;BME280_temperature;BME280_humidity;BME280_pressure;Samples;Min_cycle;Max_cycle;Signal;HPM_P1;HPM_P2
2021/07/07 14:00:38;;;;;;;1.80;0.70;;;26.00;99.50;;;;;;3718571;23;20234;-78
2021/07/07 14:03:05;;;;;;;1.30;0.80;;;25.90;98.00;;;;;;4996257;28;20214;-76
2021/07/07 14:05:32;;;;;;;3.38;1.10;;;25.90;98.10;;;;;;4997195;28;20210;-75
2021/07/07 14:07:58;;;;;;;0.98;0.75;;;25.90;98.00;;;;;;4996528;28;20230;-76
2021/07/07 14:10:26;;;;;;;2.00;0.90;;;25.80;97.70;;;;;;4996583;28;20217;-75
2021/07/07 14:12:53;;;;;;;1.80;0.90;;;25.70;98.40;;;;;;4996583;28;20206;-75
2021/07/07 14:15:20;;;;;;;1.73;0.70;;;25.50;98.10;;;;;;4996735;28;20213;-75
2021/07/07 14:17:48;;;;;;;3.38;1.05;;;25.50;98.50;;;;;;4996295;28;20226;-75
2021/07/07 14:20:15;;;;;;;2.45;1.13;;;25.70;99.00;;;;;;4996296;28;20203;-76
2021/07/07 14:22:42;;;;;;;1.05;0.80;;;25.50;98.70;;;;;;4996498;28;20217;-76
2021/07/07 14:25:10;;;;;;;4.22;0.98;;;25.60;98.80;;;;;;4996618;28;20214;-75
2021/07/07 14:27:37;;;;;;;1.83;0.70;;;25.80;99.30;;;;;;4996482;28;20233;-75
2021/07/07 14:30:04;;;;;;;1.33;0.80;;;26.10;99.50;;;;;;4996328;28;20699;-74
2021/07/07 14:32:31;;;;;;;4.15;0.90;;;26.10;99.50;;;;;;4996378;28;20285;-76
2021/07/07 14:34:59;;;;;;;1.58;0.95;;;26.10;98.20;;;;;;4996224;28;20217;-76
2021/07/07 14:37:26;;;;;;;0.90;0.70;;;25.80;98.10;;;;;;4996120;28;20231;-76
2021/07/07 14:39:53;;;;;;;1.33;0.80;;;25.90;98.60;;;;;;4996829;28;20234;-76
2021/07/07 14:42:20;;;;;;;2.63;0.88;;;26.10;98.90;;;;;;4996298;28;20207;-75
2021/07/07 14:44:48;;;;;;;1.83;0.90;;;26.30;98.40;;;;;;4996300;28;20211;-76
2021/07/07 14:47:14;;;;;;;1.48;0.90;;;26.60;97.70;;;;;;4996097;28;20226;-76
2021/07/07 14:49:41;;;;;;;3.53;0.98;;;26.40;96.80;;;;;;5002846;28;20216;-75
2021/07/07 14:52:10;;;;;;;1.65;0.82;;;26.10;97.10;;;;;;5009476;28;20207;-75
2021/07/07 14:54:37;;;;;;;1.48;0.95;;;26.10;99.10;;;;;;5011086;28;20278;-75
2021/07/07 14:57:05;;;;;;;1.48;0.82;;;26.30;98.00;;;;;;5002738;28;20577;-75
2021/07/07 14:59:34;;;;;;;2.40;1.10;;;26.40;97.60;;;;;;4995866;28;20361;-75
2021/07/07 15:02:01;;;;;;;1.90;1.10;;;26.30;97.00;;;;;;4995765;28;20218;-75
2021/07/07 15:04:28;;;;;;;1.73;0.85;;;26.20;96.60;;;;;;4995593;28;20206;-75
2021/07/07 15:06:55;;;;;;;0.88;0.70;;;26.10;96.60;;;;;;4995394;28;20569;-75
2021/07/07 15:09:23;;;;;;;2.50;0.93;;;26.20;97.30;;;;;;4995786;28;20676;-76
2021/07/07 15:11:50;;;;;;;1.08;0.70;;;26.10;96.90;;;;;;4995580;28;20657;-76
2021/07/07 15:14:17;;;;;;;1.35;0.90;;;26.00;97.70;;;;;;4995708;28;20210;-76
2021/07/07 15:16:47;;;;;;;2.20;0.70;;;25.80;98.20;;;;;;4995786;28;20225;-75
2021/07/07 15:19:13;;;;;;;1.45;0.80;;;25.50;97.40;;;;;;4995342;28;20237;-76
2021/07/07 15:21:40;;;;;;;2.95;0.90;;;25.30;98.80;;;;;;4997574;28;20217;-76
2021/07/07 15:24:07;;;;;;;1.83;0.90;;;25.10;98.80;;;;;;4997531;28;20210;-75
2021/07/07 15:26:35;;;;;;;2.95;1.25;;;25.20;98.30;;;;;;4995810;28;20210;-75
2021/07/07 15:29:02;;;;;;;3.22;0.98;;;25.20;98.00;;;;;;4996496;28;20231;-75
2021/07/07 15:31:30;;;;;;;0.70;0.70;;;25.30;97.70;;;;;;4995551;28;20630;-75
2021/07/07 15:33:57;;;;;;;4.00;0.80;;;25.10;97.10;;;;;;4995995;28;20213;-75
2021/07/07 15:36:26;;;;;;;1.33;0.70;;;25.00;97.80;;;;;;4996177;28;20211;-75
2021/07/07 15:38:53;;;;;;;1.95;0.75;;;24.90;98.40;;;;;;4996709;28;20234;-76
2021/07/07 15:41:21;;;;;;;3.20;1.00;;;25.00;98.50;;;;;;4995249;28;20209;-76
2021/07/07 15:43:51;;;;;;;1.80;0.98;;;25.10;99.90;;;;;;4996171;28;20217;-77
2021/07/07 15:46:19;;;;;;;2.15;0.90;;;25.20;99.40;;;;;;4999212;28;20217;-76
2021/07/07 15:48:46;;;;;;;1.45;0.85;;;25.30;99.50;;;;;;4995415;28;20234;-76
2021/07/07 15:51:13;;;;;;;2.25;0.90;;;25.40;99.60;;;;;;4995616;28;20653;-76
2021/07/07 15:53:40;;;;;;;0.90;0.77;;;25.50;99.40;;;;;;4997677;28;20214;-76
2021/07/07 15:56:07;;;;;;;0.70;0.60;;;25.30;98.60;;;;;;4995110;28;20209;-76
2021/07/07 15:58:34;;;;;;;1.98;0.77;;;25.20;98.50;;;;;;4995812;28;20226;-76
2021/07/07 16:01:02;;;;;;;1.48;0.60;;;25.20;98.80;;;;;;4994618;28;20581;-76
2021/07/07 16:03:32;;;;;;;2.15;0.70;;;25.20;99.10;;;;;;4995369;28;20202;-76
2021/07/07 16:05:58;;;;;;;1.63;0.80;;;25.20;99.80;;;;;;4996026;28;20601;-77
2021/07/07 16:08:25;;;;;;;1.15;0.80;;;25.20;99.70;;;;;;4993970;28;20233;-77
2021/07/07 16:10:52;;;;;;;3.10;1.08;;;25.20;99.90;;;;;;4994881;28;20206;-76
2021/07/07 16:13:19;;;;;;;1.25;0.85;;;25.00;98.30;;;;;;4994624;28;20683;-77
2021/07/07 16:15:46;;;;;;;2.55;1.00;;;24.80;99.90;;;;;;4995906;28;20212;-76
2021/07/07 16:18:14;;;;;;;1.05;0.60;;;24.90;99.90;;;;;;4995290;28;20723;-76
2021/07/07 16:20:41;;;;;;;2.30;0.80;;;24.90;99.40;;;;;;4994379;28;20242;-76
2021/07/07 16:23:07;;;;;;;1.02;0.90;;;24.90;99.00;;;;;;4994632;28;20208;-75
2021/07/07 16:25:34;;;;;;;1.83;0.82;;;24.90;99.60;;;;;;4994504;28;20209;-75
2021/07/07 16:28:01;;;;;;;0.60;0.60;;;24.80;99.20;;;;;;4994199;28;20226;-76
2021/07/07 16:30:28;;;;;;;3.13;1.13;;;24.60;99.30;;;;;;4994095;28;20202;-76
2021/07/07 16:32:56;;;;;;;2.03;0.90;;;24.50;99.40;;;;;;4994182;28;20577;-76
2021/07/07 16:35:24;;;;;;;0.88;0.70;;;24.40;99.50;;;;;;4994077;28;20211;-76
2021/07/07 16:37:51;;;;;;;2.45;0.70;;;24.50;99.90;;;;;;4993945;28;20226;-76
2021/07/07 16:40:18;;;;;;;2.50;0.75;;;24.50;99.80;;;;;;4994054;28;20234;-76
2021/07/07 16:42:45;;;;;;;0.90;0.80;;;24.40;99.80;;;;;;4994093;28;20653;-76
2021/07/07 16:45:12;;;;;;;1.40;0.73;;;24.40;99.50;;;;;;4994185;28;20206;-76
2021/07/07 16:47:38;;;;;;;2.45;1.08;;;24.30;99.70;;;;;;4994080;28;20241;-76
2021/07/07 16:50:06;;;;;;;1.17;0.60;;;24.30;99.00;;;;;;4994007;28;20207;-76
2021/07/07 16:52:34;;;;;;;1.10;0.73;;;24.30;98.40;;;;;;4993813;28;20206;-76
2021/07/07 16:55:01;;;;;;;0.60;0.57;;;24.30;98.80;;;;;;4994335;28;20209;-76
2021/07/07 16:57:29;;;;;;;0.90;0.65;;;24.30;98.90;;;;;;4994006;28;20222;-75
2021/07/07 16:59:56;;;;;;;1.10;0.80;;;24.20;98.50;;;;;;4994176;28;20328;-74
2021/07/07 17:02:23;;;;;;;8.98;1.10;;;24.10;98.40;;;;;;4993734;28;20558;-75
2021/07/07 17:04:49;;;;;;;1.98;0.77;;;24.10;98.80;;;;;;4994137;28;20206;-76
2021/07/07 17:07:16;;;;;;;1.05;0.68;;;24.10;98.50;;;;;;4994122;28;20230;-75
2021/07/07 17:09:44;;;;;;;1.63;0.90;;;24.10;98.80;;;;;;4993620;28;20213;-75
2021/07/07 17:12:11;;;;;;;1.23;0.70;;;24.20;98.30;;;;;;4993907;28;20212;-75
2021/07/07 17:14:40;;;;;;;2.45;0.93;;;24.20;98.70;;;;;;4993854;28;20207;-76
2021/07/07 17:17:06;;;;;;;0.80;0.70;;;24.20;99.00;;;;;;4993687;28;20207;-76
2021/07/07 17:19:33;;;;;;;1.65;0.80;;;24.30;98.80;;;;;;4996567;28;20244;-76
2021/07/07 17:22:00;;;;;;;2.67;0.75;;;24.40;97.90;;;;;;4998107;28;20213;-75
2021/07/07 17:24:27;;;;;;;1.35;0.90;;;24.30;98.30;;;;;;4998402;28;20206;-75
2021/07/07 17:26:55;;;;;;;0.82;0.70;;;24.20;98.60;;;;;;4999738;28;20210;-76
2021/07/07 17:29:22;;;;;;;1.13;0.80;;;24.20;99.00;;;;;;4998640;28;20218;-75
2021/07/07 17:31:49;;;;;;;2.60;0.80;;;24.10;99.50;;;;;;4998283;28;20214;-75
2021/07/07 17:34:15;;;;;;;2.13;1.08;;;24.10;99.40;;;;;;5006018;28;20210;-75
2021/07/07 17:36:42;;;;;;;0.85;0.60;;;24.10;98.80;;;;;;5013951;28;20210;-75
2021/07/07 17:39:09;;;;;;;4.20;0.70;;;24.00;98.00;;;;;;5012175;28;20298;-76
2021/07/07 17:41:35;;;;;;;3.22;0.70;;;24.10;98.90;;;;;;5014004;28;20216;-75
2021/07/07 17:44:04;;;;;;;4.10;0.90;;;24.00;98.20;;;;;;5006491;28;20676;-75
2021/07/07 17:46:31;;;;;;;1.20;0.77;;;24.00;98.50;;;;;;4999960;28;20214;-75
2021/07/07 17:48:58;;;;;;;1.30;0.85;;;24.10;99.40;;;;;;4998269;28;20226;-75
2021/07/07 17:51:25;;;;;;;0.75;0.70;;;24.00;98.40;;;;;;4997673;28;20221;-76
2021/07/07 17:53:51;;;;;;;1.58;0.80;;;23.90;98.90;;;;;;4997548;28;20206;-75
2021/07/07 17:56:18;;;;;;;1.90;0.80;;;24.00;99.60;;;;;;4997633;28;20213;-75
2021/07/07 17:58:45;;;;;;;1.95;0.65;;;24.00;99.40;;;;;;4997494;28;20226;-75
2021/07/07 18:01:13;;;;;;;1.38;0.90;;;24.00;98.90;;;;;;4997799;28;20238;-76
2021/07/07 18:03:40;;;;;;;2.70;0.90;;;24.00;99.90;;;;;;4997209;28;20206;-75
2021/07/07 18:06:07;;;;;;;1.30;0.80;;;24.00;99.90;;;;;;4998340;28;20305;-76
2021/07/07 18:08:34;;;;;;;1.10;0.90;;;23.90;99.10;;;;;;4997047;28;20226;-75
2021/07/07 18:11:01;;;;;;;1.00;0.85;;;23.80;99.30;;;;;;4997241;28;20213;-76
2021/07/07 18:13:28;;;;;;;1.10;0.82;;;23.70;99.20;;;;;;4997004;28;20207;-76
2021/07/07 18:15:55;;;;;;;1.30;0.70;;;23.70;98.70;;;;;;4996958;28;20298;-76
2021/07/07 18:18:23;;;;;;;1.58;0.75;;;23.60;98.70;;;;;;4996684;28;20238;-75
2021/07/07 18:20:52;;;;;;;3.85;0.90;;;23.50;97.70;;;;;;4996571;28;20720;-76
2021/07/07 18:23:19;;;;;;;1.23;0.80;;;23.50;98.80;;;;;;4996903;28;20206;-75
2021/07/07 18:25:46;;;;;;;1.15;0.70;;;23.50;99.50;;;;;;4996940;28;20198;-76
2021/07/07 18:28:18;;;;;;;0.98;0.70;;;23.40;99.70;;;;;;4996694;28;20230;-76
2021/07/07 18:30:44;;;;;;;1.58;0.73;;;23.40;99.90;;;;;;4995550;28;20297;-76
2021/07/07 18:33:11;;;;;;;6.75;0.82;;;23.40;99.90;;;;;;4996079;28;20221;-76
2021/07/07 18:35:39;;;;;;;2.88;0.82;;;23.30;99.90;;;;;;4996564;28;20210;-77
2021/07/07 18:38:06;;;;;;;1.08;0.90;;;23.30;99.80;;;;;;4996468;28;20697;-76
2021/07/07 18:40:34;;;;;;;2.50;0.80;;;23.10;99.90;;;;;;4996193;28;20589;-76
2021/07/07 18:43:01;;;;;;;1.48;0.75;;;23.00;99.90;;;;;;4996629;28;20249;-76
2021/07/07 18:45:28;;;;;;;0.68;0.65;;;22.90;99.90;;;;;;4996050;28;20209;-77
2021/07/07 18:47:56;;;;;;;1.77;0.77;;;23.00;99.90;;;;;;4995934;28;20701;-77
2021/07/07 18:50:23;;;;;;;1.40;0.80;;;23.00;99.90;;;;;;4996376;28;20215;-76
2021/07/07 18:52:51;;;;;;;1.20;0.90;;;23.00;99.90;;;;;;4996224;28;20202;-76
2021/07/07 18:55:19;;;;;;;0.93;0.80;;;22.80;99.90;;;;;;4996337;28;20209;-76
2021/07/07 18:57:46;;;;;;;1.67;0.90;;;22.80;99.90;;;;;;4996106;28;20230;-77
2021/07/07 19:00:16;;;;;;;1.00;0.70;;;22.80;99.90;;;;;;4995909;28;20230;-77
2021/07/07 19:02:44;;;;;;;0.95;0.80;;;22.80;99.90;;;;;;4995662;28;20297;-77
2021/07/07 19:05:12;;;;;;;4.00;0.80;;;22.80;99.90;;;;;;4995470;28;20206;-76
2021/07/07 19:07:40;;;;;;;1.48;0.80;;;22.80;99.90;;;;;;4995320;28;20313;-77
2021/07/07 19:10:12;;;;;;;0.80;0.70;;;22.70;99.90;;;;;;4995152;28;20201;-77
2021/07/07 19:12:40;;;;;;;0.95;0.68;;;22.70;99.90;;;;;;4994816;28;20278;-77
2021/07/07 19:15:09;;;;;;;1.17;0.90;;;22.70;99.90;;;;;;4995416;28;20202;-76
2021/07/07 19:17:36;;;;;;;1.08;0.90;;;22.80;99.90;;;;;;4994657;28;20256;-76
2021/07/07 19:20:03;;;;;;;2.53;0.70;;;22.80;99.90;;;;;;4993905;28;20230;-76
2021/07/07 19:22:30;;;;;;;1.25;0.90;;;22.80;99.90;;;;;;4995498;28;20206;-76
2021/07/07 19:24:57;;;;;;;1.88;0.93;;;22.80;99.90;;;;;;4995614;28;20207;-76
2021/07/07 19:27:25;;;;;;;0.90;0.80;;;22.80;99.90;;;;;;4995354;28;20317;-76
2021/07/07 19:29:52;;;;;;;1.85;0.98;;;22.80;99.90;;;;;;4995853;28;20218;-76
2021/07/07 19:32:19;;;;;;;1.00;0.88;;;22.80;99.90;;;;;;4995122;28;20210;-76
2021/07/07 19:34:45;;;;;;;1.02;0.75;;;22.80;99.90;;;;;;4995420;28;20253;-76
2021/07/07 19:37:12;;;;;;;2.28;0.90;;;22.70;99.90;;;;;;4995210;28;20211;-76
2021/07/07 19:39:39;;;;;;;1.63;1.17;;;22.60;99.90;;;;;;4994981;28;20550;-76
2021/07/07 19:42:06;;;;;;;1.20;0.90;;;22.50;99.90;;;;;;4995101;28;20203;-76
2021/07/07 19:44:34;;;;;;;3.95;1.20;;;22.50;99.90;;;;;;4995454;28;20576;-76
2021/07/07 19:47:01;;;;;;;3.65;1.45;;;22.20;99.90;;;;;;4994896;28;20216;-77
2021/07/07 19:49:27;;;;;;;3.30;1.42;;;22.00;99.90;;;;;;4995157;28;20210;-76
2021/07/07 19:51:54;;;;;;;3.00;1.52;;;21.60;99.90;;;;;;4994823;28;20660;-77
2021/07/07 19:54:21;;;;;;;5.05;1.75;;;21.30;99.90;;;;;;4995051;28;20206;-77
2021/07/07 19:56:48;;;;;;;3.70;1.35;;;20.80;99.90;;;;;;4995150;28;20210;-77
2021/07/07 19:59:16;;;;;;;2.05;1.35;;;20.50;99.90;;;;;;4995806;28;20226;-77
2021/07/07 20:01:44;;;;;;;2.08;1.30;;;20.40;99.90;;;;;;5010881;23;20257;-82
2021/07/07 20:04:11;;;;;;;3.60;1.25;;;20.50;99.90;;;;;;4994590;28;20249;-82
2021/07/07 20:06:38;;;;;;;3.00;1.60;;;20.40;99.90;;;;;;4994482;28;20206;-82
2021/07/07 20:09:05;;;;;;;3.35;1.40;;;20.30;99.90;;;;;;4994261;28;20223;-81
2021/07/07 20:11:31;;;;;;;2.67;1.42;;;20.10;99.90;;;;;;4994572;28;20285;-82
2021/07/07 20:13:58;;;;;;;2.83;1.77;;;20.00;99.90;;;;;;4994521;28;20218;-82
2021/07/07 20:16:25;;;;;;;2.13;1.50;;;19.80;99.90;;;;;;4994296;28;20662;-82
2021/07/07 20:18:54;;;;;;;3.07;1.93;;;19.70;99.90;;;;;;4994276;28;20249;-82
2021/07/07 20:21:21;;;;;;;2.63;1.50;;;19.60;99.90;;;;;;4994229;28;20304;-81
2021/07/07 20:23:48;;;;;;;4.87;2.00;;;19.60;99.90;;;;;;4994129;28;20217;-82
2021/07/07 20:26:15;;;;;;;2.67;1.70;;;19.30;99.90;;;;;;4994408;28;20206;-79
2021/07/07 20:28:42;;;;;;;4.33;1.60;;;19.20;99.90;;;;;;4995022;28;20313;-81
2021/07/07 20:31:09;;;;;;;4.23;1.73;;;19.30;99.90;;;;;;4994297;28;20206;-82
2021/07/07 20:33:37;;;;;;;4.97;1.53;;;19.30;99.90;;;;;;4993990;28;20210;-82
2021/07/07 20:36:06;;;;;;;5.60;1.73;;;19.30;99.90;;;;;;4994005;28;20245;-82
2021/07/07 20:38:33;;;;;;;2.13;1.67;;;19.30;99.90;;;;;;4993890;28;20723;-82
2021/07/07 20:41:01;;;;;;;4.17;1.90;;;19.30;99.90;;;;;;4994246;28;20238;-82
2021/07/07 20:43:28;;;;;;;2.33;1.60;;;19.30;99.90;;;;;;4994039;28;20256;-81
2021/07/07 20:45:55;;;;;;;2.00;1.53;;;19.30;99.90;;;;;;4993880;28;20207;-81
2021/07/07 20:48:22;;;;;;;2.80;1.60;;;19.20;99.90;;;;;;4993526;28;20227;-81
2021/07/07 20:50:49;;;;;;;1.70;1.53;;;19.10;99.90;;;;;;4993736;28;20657;-81
2021/07/07 20:53:17;;;;;;;1.70;1.50;;;19.00;99.90;;;;;;4993197;28;20206;-79
2021/07/07 20:55:44;;;;;;;3.13;1.43;;;18.90;99.90;;;;;;4993300;28;20213;-80
2021/07/07 20:58:11;;;;;;;2.00;1.10;;;18.80;99.90;;;;;;4993442;28;20235;-81
2021/07/07 21:00:37;;;;;;;3.13;1.90;;;18.70;99.90;;;;;;4993282;28;20236;-83
2021/07/07 21:03:05;;;;;;;5.87;1.70;;;18.60;99.90;;;;;;4993402;28;20206;-77
2021/07/07 21:05:32;;;;;;;1.97;1.67;;;18.50;99.90;;;;;;4993531;28;20214;-80
2021/07/07 21:07:59;;;;;;;5.73;2.07;;;18.50;99.90;;;;;;4993650;28;20222;-78
2021/07/07 21:10:27;;;;;;;2.10;1.73;;;18.50;99.90;;;;;;4993501;28;20210;-80
2021/07/07 21:12:54;;;;;;;4.10;2.00;;;18.40;99.90;;;;;;4993484;28;20351;-81
2021/07/07 21:15:21;;;;;;;3.53;2.27;;;18.20;99.90;;;;;;4993585;28;20577;-83
2021/07/07 21:17:48;;;;;;;3.63;2.50;;;18.10;99.90;;;;;;4993536;28;20816;-79
2021/07/07 21:20:16;;;;;;;5.07;2.53;;;18.10;99.90;;;;;;4994280;28;20206;-81
2021/07/07 21:22:43;;;;;;;3.83;2.50;;;18.20;99.90;;;;;;4993375;28;20210;-81
2021/07/07 21:25:12;;;;;;;4.27;2.60;;;18.20;99.90;;;;;;4993539;28;20203;-80
2021/07/07 21:27:40;;;;;;;2.73;1.80;;;18.20;99.90;;;;;;4993148;28;20222;-81
2021/07/07 21:30:09;;;;;;;2.77;2.10;;;18.10;99.90;;;;;;4993314;28;20210;-81
2021/07/07 21:32:36;;;;;;;3.57;1.97;;;18.00;99.90;;;;;;4993603;28;20207;-81
2021/07/07 21:35:03;;;;;;;3.07;1.70;;;18.00;99.90;;;;;;4993402;28;20211;-81
2021/07/07 21:37:30;;;;;;;7.07;2.20;;;18.10;99.90;;;;;;4993073;28;20230;-80
2021/07/07 21:39:56;;;;;;;2.70;1.97;;;18.00;99.90;;;;;;4993035;28;20206;-81
2021/07/07 21:42:24;;;;;;;7.90;2.17;;;18.00;99.90;;;;;;4992757;28;20238;-81
2021/07/07 21:44:52;;;;;;;2.50;1.80;;;17.90;99.90;;;;;;4992657;28;20202;-81
